Time;durP1;ratioP1;P1;durP2;ratioP2;P2;SDS_P1;SDS_P2;PMS_P1;PMS_P2;Temp;Humidity;BMP_temperature;BMP_pressure;BME280_temperature;BME280_humidity;BME280_pressure;Samples;Min_cycle;Max_cycle;Signal;HPM_P1;HPM_P2
2023/12/10 00:00:07;;;;;;;2.08;1.98;;;6.90;49.30;;;;;;5034523;28;20228;-45
2023/12/10 00:02:33;;;;;;;2.75;2.15;;;7.00;49.40;;;;;;5034119;28;20691;-49
2023/12/10 00:04:58;;;;;;;0.90;0.60;;;7.00;49.20;;;;;;5034600;28;20178;-46
2023/12/10 00:07:24;;;;;;;2.17;1.97;;;7.00;49.20;;;;;;5034024;28;20427;-45
2023/12/10 00:09:51;;;;;;;1.67;1.47;;;7.10;49.30;;;;;;5034312;28;20201;-50
2023/12/10 00:12:16;;;;;;;1.17;0.85;;;7.10;49.30;;;;;;5033778;28;20440;-45
2023/12/10 00:14:42;;;;;;;2.83;0.73;;;7.20;49.10;;;;;;5034122;28;20216;-51
2023/12/10 00:17:08;;;;;;;2.30;0.53;;;7.10;49.10;;;;;;5033890;28;20420;-44
2023/12/10 00:19:34;;;;;;;0.90;0.53;;;7.20;48.90;;;;;;5033937;28;20459;-47
2023/12/10 00:22:00;;;;;;;2.90;0.83;;;7.20;49.00;;;;;;5033857;28;20204;-47
2023/12/10 00:24:26;;;;;;;0.90;0.50;;;7.20;48.90;;;;;;5033920;28;20186;-46
2023/12/10 00:26:52;;;;;;;1.02;0.93;;;7.20;49.00;;;;;;5033905;28;20493;-45
2023/12/10 00:29:18;;;;;;;1.40;1.03;;;7.20;49.00;;;;;;5033869;28;20665;-46
2023/12/10 00:31:44;;;;;;;6.35;3.03;;;7.20;48.90;;;;;;5033670;28;20413;-47
2023/12/10 00:34:11;;;;;;;1.45;1.13;;;7.20;48.80;;;;;;5033534;28;20213;-46
2023/12/10 00:36:37;;;;;;;1.20;0.95;;;7.10;48.80;;;;;;5033502;28;20178;-44
2023/12/10 00:39:05;;;;;;;1.10;0.63;;;7.10;48.90;;;;;;5033839;28;20184;-48
2023/12/10 00:41:31;;;;;;;1.75;1.33;;;7.10;48.90;;;;;;5033336;28;20205;-47
2023/12/10 00:43:57;;;;;;;0.80;0.30;;;7.10;48.90;;;;;;5033553;28;20730;-46
2023/12/10 00:46:23;;;;;;;0.97;0.47;;;7.10;48.80;;;;;;5033403;28;20166;-48
2023/12/10 00:48:48;;;;;;;0.90;0.50;;;7.10;48.70;;;;;;5032461;28;20405;-44
2023/12/10 00:51:21;;;;;;;0.90;0.53;;;7.10;48.80;;;;;;5033388;28;20463;-47
2023/12/10 00:53:48;;;;;;;2.72;1.83;;;7.10;48.80;;;;;;5033454;28;20636;-46
2023/12/10 00:56:14;;;;;;;1.27;0.52;;;7.10;48.70;;;;;;5033507;28;20584;-49
2023/12/10 00:58:40;;;;;;;1.58;1.48;;;7.10;48.70;;;;;;5033253;28;20170;-50
2023/12/10 01:01:07;;;;;;;4.28;3.88;;;7.10;48.60;;;;;;5015458;28;20223;-44
2023/12/10 01:03:34;;;;;;;4.18;0.85;;;7.10;48.60;;;;;;5033090;28;20213;-50
2023/12/10 01:06:03;;;;;;;1.10;0.98;;;7.10;48.70;;;;;;5033373;28;20185;-50
2023/12/10 01:08:30;;;;;;;1.30;0.93;;;7.10;48.50;;;;;;5033478;28;20178;-46
2023/12/10 01:10:56;;;;;;;0.80;0.30;;;7.10;48.50;;;;;;5033228;28;20212;-45
2023/12/10 01:13:24;;;;;;;3.92;0.88;;;7.10;48.40;;;;;;5032882;28;20209;-50
2023/12/10 01:15:51;;;;;;;2.80;1.13;;;7.00;48.50;;;;;;5032820;28;20186;-53
2023/12/10 01:18:16;;;;;;;1.00;0.73;;;7.60;48.90;;;;;;5032874;28;20192;-45
2023/12/10 01:20:42;;;;;;;0.90;0.40;;;7.10;48.60;;;;;;5032777;28;20209;-50
2023/12/10 01:23:09;;;;;;;0.90;0.47;;;7.00;48.60;;;;;;5032832;28;20456;-43
2023/12/10 01:25:34;;;;;;;0.80;0.40;;;7.00;48.60;;;;;;5032719;28;20960;-48
2023/12/10 01:28:00;;;;;;;1.00;0.77;;;7.00;48.60;;;;;;5032673;28;20205;-45
2023/12/10 01:30:26;;;;;;;5.68;1.48;;;7.00;48.70;;;;;;5032589;28;20177;-47
2023/12/10 01:33:00;;;;;;;0.80;0.30;;;7.00;48.80;;;;;;5032538;28;20205;-50
2023/12/10 01:35:26;;;;;;;2.10;1.00;;;7.00;48.90;;;;;;5032748;28;20185;-44
2023/12/10 01:37:52;;;;;;;1.33;1.20;;;6.90;49.20;;;;;;5032529;28;20779;-48
2023/12/10 01:40:19;;;;;;;1.57;0.80;;;6.90;49.20;;;;;;5032603;28;20194;-48
2023/12/10 01:42:45;;;;;;;0.90;0.63;;;7.00;49.10;;;;;;5032338;28;20992;-46
2023/12/10 01:45:12;;;;;;;3.05;0.93;;;7.00;49.10;;;;;;5032355;28;20182;-50
2023/12/10 01:47:42;;;;;;;1.50;1.40;;;7.00;49.10;;;;;;5032509;28;20192;-48
2023/12/10 01:50:12;;;;;;;0.90;0.57;;;7.00;49.10;;;;;;5032411;28;20178;-45
2023/12/10 01:52:40;;;;;;;0.90;0.50;;;7.00;49.30;;;;;;5032131;28;20194;-48
2023/12/10 01:55:09;;;;;;;1.00;0.70;;;6.90;49.40;;;;;;5032311;28;20177;-44
2023/12/10 01:57:35;;;;;;;0.82;0.40;;;6.90;49.60;;;;;;5032036;28;20647;-46
2023/12/10 02:00:05;;;;;;;1.05;0.60;;;7.00;50.30;;;;;;5032003;28;20257;-49
2023/12/10 02:02:32;;;;;;;1.10;0.77;;;7.00;49.50;;;;;;5032001;28;20724;-43
2023/12/10 02:05:04;;;;;;;0.90;0.57;;;7.00;49.60;;;;;;5032357;28;20184;-49
2023/12/10 02:07:30;;;;;;;1.30;0.90;;;7.10;49.50;;;;;;5031995;28;20180;-50
2023/12/10 02:09:56;;;;;;;1.10;0.93;;;7.10;49.50;;;;;;5031994;28;20169;-51
2023/12/10 02:12:22;;;;;;;1.83;0.90;;;7.10;49.50;;;;;;5031720;28;20173;-44
2023/12/10 02:14:48;;;;;;;0.80;0.30;;;7.20;49.50;;;;;;5032393;28;20631;-46
2023/12/10 02:17:14;;;;;;;1.10;0.95;;;7.20;49.40;;;;;;5031894;28;20188;-48
2023/12/10 02:19:39;;;;;;;1.57;0.83;;;7.20;50.10;;;;;;5032091;28;20260;-44
2023/12/10 02:22:05;;;;;;;1.30;0.97;;;7.20;49.30;;;;;;5031869;28;20201;-47
2023/12/10 02:25:03;;;;;;;0.90;0.70;;;7.30;49.30;;;;;;5032046;28;20205;-49
2023/12/10 02:27:29;;;;;;;1.08;0.55;;;7.30;49.00;;;;;;5019746;28;20440;-45
2023/12/10 02:29:55;;;;;;;1.08;0.93;;;7.30;49.10;;;;;;5031846;28;20169;-49
2023/12/10 02:32:21;;;;;;;0.90;0.50;;;7.30;49.20;;;;;;5031878;28;20567;-46
2023/12/10 02:34:47;;;;;;;2.27;1.13;;;7.20;49.20;;;;;;5031779;28;20727;-46
2023/12/10 02:37:12;;;;;;;1.23;0.60;;;7.20;49.10;;;;;;5031636;28;20525;-49
2023/12/10 02:39:38;;;;;;;0.80;0.40;;;7.20;49.10;;;;;;5031734;28;20663;-47
2023/12/10 02:42:04;;;;;;;1.13;0.70;;;7.20;49.50;;;;;;5031970;28;20248;-45
2023/12/10 02:44:30;;;;;;;0.90;0.50;;;7.20;49.50;;;;;;5032599;28;20416;-49
2023/12/10 02:46:56;;;;;;;2.60;1.50;;;7.20;49.60;;;;;;5032637;28;20416;-49
2023/12/10 02:49:21;;;;;;;0.90;0.60;;;7.10;49.90;;;;;;5032674;28;20201;-44
2023/12/10 02:51:47;;;;;;;0.80;0.50;;;7.00;50.00;;;;;;5031643;28;20182;-45
2023/12/10 02:54:13;;;;;;;0.80;0.30;;;7.00;50.10;;;;;;5031544;28;20198;-50
2023/12/10 02:56:39;;;;;;;1.03;0.70;;;7.00;50.10;;;;;;5031483;28;20190;-52
2023/12/10 02:59:05;;;;;;;1.00;0.50;;;7.00;50.10;;;;;;5031811;28;20483;-47
2023/12/10 03:01:30;;;;;;;1.30;0.70;;;7.10;49.90;;;;;;5031596;28;20412;-50
2023/12/10 03:03:56;;;;;;;0.80;0.40;;;7.00;50.00;;;;;;5031841;28;20261;-45
2023/12/10 03:06:22;;;;;;;1.30;0.87;;;7.00;50.20;;;;;;5031629;28;20171;-45
2023/12/10 03:08:48;;;;;;;0.80;0.30;;;7.00;50.40;;;;;;5031740;28;20415;-50
2023/12/10 03:11:13;;;;;;;1.60;1.50;;;7.00;50.20;;;;;;5032638;28;20170;-48
2023/12/10 03:13:39;;;;;;;0.90;0.37;;;7.10;49.90;;;;;;5035145;28;20247;-44
2023/12/10 03:16:05;;;;;;;0.80;0.40;;;7.20;49.80;;;;;;5035437;28;20259;-49
2023/12/10 03:18:32;;;;;;;0.80;0.40;;;7.20;49.80;;;;;;5035477;28;20412;-50
2023/12/10 03:20:58;;;;;;;1.60;0.93;;;7.20;49.60;;;;;;5035392;28;20232;-47
2023/12/10 03:23:24;;;;;;;1.00;0.63;;;7.20;49.70;;;;;;5035439;28;20201;-49
2023/12/10 03:25:49;;;;;;;0.80;0.20;;;7.20;49.70;;;;;;5035396;28;20178;-50
2023/12/10 03:28:15;;;;;;;0.90;0.30;;;7.30;49.80;;;;;;5035163;28;20174;-47
2023/12/10 03:30:41;;;;;;;0.80;0.27;;;7.30;49.80;;;;;;5035023;28;20166;-49
2023/12/10 03:33:07;;;;;;;0.80;0.40;;;7.30;49.80;;;;;;5034985;28;20230;-54
2023/12/10 03:35:32;;;;;;;0.93;0.80;;;7.40;49.80;;;;;;5034789;28;20174;-48
2023/12/10 03:37:58;;;;;;;1.10;1.00;;;7.50;49.60;;;;;;5034842;28;20175;-52
2023/12/10 03:40:24;;;;;;;0.80;0.40;;;7.50;49.40;;;;;;5035090;28;20184;-51
2023/12/10 03:42:50;;;;;;;0.90;0.57;;;7.60;49.40;;;;;;5034825;28;20706;-46
2023/12/10 03:45:15;;;;;;;1.20;0.40;;;7.70;49.40;;;;;;5034895;28;20170;-52
2023/12/10 03:47:46;;;;;;;0.87;0.47;;;7.70;49.30;;;;;;5034658;28;20202;-48
2023/12/10 03:50:13;;;;;;;0.90;0.50;;;7.80;49.10;;;;;;5034704;28;20758;-49
2023/12/10 03:52:40;;;;;;;0.90;0.73;;;7.80;49.20;;;;;;5034756;28;20265;-52
2023/12/10 03:55:06;;;;;;;1.88;0.93;;;7.80;49.10;;;;;;5034631;28;20648;-47
2023/12/10 03:57:32;;;;;;;0.80;0.35;;;7.90;49.10;;;;;;5034426;28;20579;-50
2023/12/10 03:59:58;;;;;;;1.00;0.63;;;7.90;49.00;;;;;;5034708;28;20204;-47
2023/12/10 04:02:24;;;;;;;0.80;0.30;;;8.00;48.80;;;;;;5034423;28;20690;-48
2023/12/10 04:04:50;;;;;;;0.98;0.52;;;8.00;48.90;;;;;;5034609;28;20415;-51
2023/12/10 04:07:16;;;;;;;0.80;0.37;;;8.00;48.90;;;;;;5034274;28;20595;-48
2023/12/10 04:09:41;;;;;;;1.20;0.73;;;8.00;49.00;;;;;;5034472;28;20224;-49
2023/12/10 04:12:07;;;;;;;0.80;0.20;;;8.00;49.00;;;;;;5034335;28;20170;-51
2023/12/10 04:14:33;;;;;;;0.83;0.40;;;8.10;49.00;;;;;;5034386;28;20427;-48
2023/12/10 04:16:59;;;;;;;1.10;0.90;;;8.10;48.90;;;;;;5034275;28;20717;-48
2023/12/10 04:19:24;;;;;;;0.80;0.40;;;8.10;48.90;;;;;;5034179;28;20880;-52
2023/12/10 04:21:50;;;;;;;0.90;0.60;;;8.20;48.90;;;;;;5034263;28;20617;-47
2023/12/10 04:24:16;;;;;;;0.80;0.20;;;8.20;49.00;;;;;;5034102;28;20210;-52
2023/12/10 04:26:42;;;;;;;2.05;0.80;;;8.20;49.00;;;;;;5033944;28;20409;-47
2023/12/10 04:29:08;;;;;;;0.90;0.60;;;8.20;49.10;;;;;;5034272;28;20254;-48
2023/12/10 04:31:35;;;;;;;0.90;0.57;;;8.20;49.10;;;;;;5034317;28;20910;-52
2023/12/10 04:34:01;;;;;;;2.45;0.85;;;8.20;49.20;;;;;;5034152;28;20189;-53
2023/12/10 04:36:27;;;;;;;1.77;1.35;;;8.20;49.10;;;;;;5033928;28;20256;-49
2023/12/10 04:38:52;;;;;;;0.90;0.50;;;8.30;49.20;;;;;;5034466;28;20176;-48
2023/12/10 04:41:18;;;;;;;0.90;0.60;;;8.30;49.10;;;;;;5034192;28;20173;-50
2023/12/10 04:43:44;;;;;;;0.93;0.43;;;8.30;49.30;;;;;;5034122;28;20208;-50
2023/12/10 04:46:10;;;;;;;0.80;0.30;;;8.30;49.30;;;;;;5034178;28;20730;-50
2023/12/10 04:48:36;;;;;;;1.10;0.90;;;8.40;49.20;;;;;;5033964;28;20204;-51
2023/12/10 04:51:02;;;;;;;2.37;0.60;;;8.40;49.50;;;;;;5033803;28;20219;-49
2023/12/10 04:53:27;;;;;;;0.90;0.40;;;8.40;49.50;;;;;;5033784;28;20186;-48
2023/12/10 04:55:53;;;;;;;1.00;0.53;;;8.40;49.50;;;;;;5033804;28;20408;-52
2023/12/10 04:58:19;;;;;;;0.90;0.50;;;8.40;49.60;;;;;;5033711;28;20582;-51
2023/12/10 05:00:45;;;;;;;0.90;0.50;;;8.40;49.70;;;;;;5033687;28;20170;-48
2023/12/10 05:03:11;;;;;;;0.80;0.30;;;8.40;49.70;;;;;;5033483;28;20323;-50
2023/12/10 05:05:37;;;;;;;1.07;0.70;;;8.50;49.70;;;;;;5033573;28;20465;-51
2023/12/10 05:08:03;;;;;;;0.90;0.60;;;8.50;49.90;;;;;;5033558;28;20174;-47
2023/12/10 05:10:28;;;;;;;1.75;0.95;;;8.50;49.70;;;;;;5033611;28;20170;-53
2023/12/10 05:12:54;;;;;;;0.90;0.40;;;8.50;49.70;;;;;;5033319;28;20210;-51
2023/12/10 05:15:20;;;;;;;0.90;0.40;;;8.50;49.80;;;;;;5033467;28;20169;-48
2023/12/10 05:17:46;;;;;;;1.10;0.73;;;8.50;49.80;;;;;;5033052;28;20277;-48
2023/12/10 05:20:11;;;;;;;0.93;0.57;;;8.60;49.70;;;;;;5033293;28;20177;-54
2023/12/10 05:22:37;;;;;;;1.10;0.70;;;8.60;49.70;;;;;;5033083;28;20210;-47
2023/12/10 05:25:03;;;;;;;0.90;0.50;;;8.60;49.70;;;;;;5033166;28;20204;-48
2023/12/10 05:27:32;;;;;;;1.00;0.68;;;8.60;49.90;;;;;;5033066;28;20208;-51
2023/12/10 05:29:59;;;;;;;0.90;0.50;;;8.60;49.80;;;;;;5032978;28;20195;-48
2023/12/10 05:32:25;;;;;;;0.80;0.40;;;8.60;49.80;;;;;;5033140;28;20201;-52
2023/12/10 05:34:51;;;;;;;0.80;0.40;;;8.60;49.70;;;;;;5032635;28;20189;-51
2023/12/10 05:37:17;;;;;;;0.90;0.50;;;8.60;49.80;;;;;;5032964;28;20240;-48
2023/12/10 05:39:43;;;;;;;0.80;0.30;;;8.60;49.60;;;;;;5033205;28;20500;-50
2023/12/10 05:42:09;;;;;;;2.73;1.13;;;8.60;49.90;;;;;;5032452;28;20200;-48
2023/12/10 05:44:35;;;;;;;1.10;0.60;;;8.70;50.00;;;;;;5032689;28;20415;-48
2023/12/10 05:47:01;;;;;;;1.10;0.70;;;8.70;49.90;;;;;;5032424;28;20269;-52
2023/12/10 05:49:27;;;;;;;1.20;0.50;;;8.70;50.30;;;;;;5032748;28;20252;-48
2023/12/10 05:51:52;;;;;;;0.90;0.53;;;8.70;50.20;;;;;;5032676;28;20416;-49
2023/12/10 05:54:18;;;;;;;1.00;0.70;;;8.80;50.10;;;;;;5032580;28;20197;-51
2023/12/10 05:56:45;;;;;;;0.90;0.50;;;8.80;50.10;;;;;;5032524;28;20202;-49
2023/12/10 05:59:10;;;;;;;0.90;0.50;;;8.80;50.20;;;;;;5032561;28;20405;-48
2023/12/10 06:01:36;;;;;;;1.57;0.90;;;8.80;50.30;;;;;;5032503;28;20658;-52
2023/12/10 06:04:02;;;;;;;0.80;0.30;;;8.90;50.10;;;;;;5032606;28;20193;-52
2023/12/10 06:06:28;;;;;;;0.80;0.30;;;8.90;49.90;;;;;;5032258;28;20632;-47
2023/12/10 06:08:53;;;;;;;1.00;0.40;;;8.80;49.90;;;;;;5032539;28;20185;-50
2023/12/10 06:11:19;;;;;;;1.00;0.50;;;8.90;50.30;;;;;;5032517;28;20184;-52
2023/12/10 06:13:45;;;;;;;0.80;0.30;;;8.90;50.10;;;;;;5032200;28;20451;-52
2023/12/10 06:16:11;;;;;;;1.07;0.70;;;8.90;50.00;;;;;;5032335;28;20221;-47
2023/12/10 06:18:37;;;;;;;1.00;0.73;;;8.90;49.90;;;;;;5032643;28;20172;-48
2023/12/10 06:21:02;;;;;;;1.65;0.40;;;8.90;49.60;;;;;;5032311;28;20205;-47
2023/12/10 06:23:28;;;;;;;1.00;0.60;;;8.90;49.50;;;;;;5032452;28;20241;-49
2023/12/10 06:25:54;;;;;;;0.80;0.30;;;8.90;49.60;;;;;;5032350;28;20932;-52
2023/12/10 06:28:20;;;;;;;0.93;0.63;;;8.90;49.80;;;;;;5032214;28;20180;-51
2023/12/10 06:30:45;;;;;;;0.80;0.37;;;8.90;50.00;;;;;;5032413;28;20180;-48
2023/12/10 06:33:11;;;;;;;0.80;0.30;;;8.90;50.00;;;;;;5032385;28;20205;-47
2023/12/10 06:35:37;;;;;;;0.80;0.47;;;8.90;49.80;;;;;;5032473;28;20174;-53
2023/12/10 06:38:03;;;;;;;1.03;0.63;;;8.80;49.50;;;;;;5032307;28;20182;-53
2023/12/10 06:40:28;;;;;;;3.67;1.70;;;8.80;49.50;;;;;;5032230;28;20992;-48
2023/12/10 06:42:54;;;;;;;4.50;0.87;;;8.80;49.60;;;;;;5032024;28;20575;-52
2023/12/10 06:45:20;;;;;;;0.90;0.67;;;8.80;49.80;;;;;;5032283;28;20166;-54
2023/12/10 06:47:46;;;;;;;0.90;0.57;;;8.70;49.80;;;;;;5035651;28;20261;-47
2023/12/10 06:50:12;;;;;;;0.80;0.40;;;8.80;50.10;;;;;;5036735;28;20169;-54
2023/12/10 06:52:37;;;;;;;1.83;0.80;;;8.90;50.30;;;;;;5036064;28;20887;-49
2023/12/10 06:55:04;;;;;;;0.90;0.50;;;8.90;50.20;;;;;;5036158;28;20209;-48
2023/12/10 06:57:29;;;;;;;0.80;0.30;;;8.90;50.00;;;;;;5036110;28;20182;-53
2023/12/10 06:59:55;;;;;;;3.37;0.50;;;8.90;49.80;;;;;;5036128;28;20192;-51
2023/12/10 07:02:21;;;;;;;0.97;0.53;;;9.00;49.80;;;;;;5036383;28;20202;-48
2023/12/10 07:04:47;;;;;;;0.90;0.70;;;9.00;49.90;;;;;;5036141;28;20405;-49
2023/12/10 07:07:12;;;;;;;0.80;0.40;;;9.00;49.80;;;;;;5035880;28;20189;-51
2023/12/10 07:09:38;;;;;;;1.10;0.70;;;9.00;49.70;;;;;;5036043;28;20573;-52
2023/12/10 07:12:04;;;;;;;0.90;0.50;;;9.10;49.70;;;;;;5035977;28;20697;-48
2023/12/10 07:14:30;;;;;;;0.80;0.30;;;9.10;49.40;;;;;;5035768;28;20217;-49
2023/12/10 07:16:55;;;;;;;0.80;0.30;;;9.00;49.30;;;;;;5035750;28;20681;-51
2023/12/10 07:19:22;;;;;;;0.90;0.50;;;9.00;49.10;;;;;;5036101;28;20240;-50
2023/12/10 07:21:52;;;;;;;0.90;0.60;;;9.00;49.40;;;;;;5036269;28;20205;-48
2023/12/10 07:24:19;;;;;;;0.80;0.40;;;8.90;49.50;;;;;;5036230;28;20201;-48
2023/12/10 07:26:45;;;;;;;8.77;0.88;;;8.90;49.70;;;;;;5035889;28;20177;-53
2023/12/10 07:29:11;;;;;;;1.30;0.80;;;9.00;49.70;;;;;;5035435;28;20181;-47
2023/12/10 07:31:37;;;;;;;1.63;0.80;;;9.00;49.80;;;;;;5035339;28;20174;-48
2023/12/10 07:34:02;;;;;;;1.20;0.57;;;9.00;49.70;;;;;;5035556;28;20745;-55
2023/12/10 07:36:28;;;;;;;1.43;1.07;;;9.00;50.00;;;;;;5035114;28;20435;-49
2023/12/10 07:38:54;;;;;;;2.13;1.07;;;9.10;50.30;;;;;;5035525;28;20490;-52
2023/12/10 07:41:21;;;;;;;2.03;1.83;;;9.10;50.20;;;;;;5035211;28;20169;-53
2023/12/10 07:43:47;;;;;;;1.10;0.68;;;9.20;50.20;;;;;;5035191;28;20626;-48
2023/12/10 07:46:13;;;;;;;4.93;2.55;;;9.20;50.10;;;;;;5035184;28;20178;-50
2023/12/10 07:48:39;;;;;;;1.10;0.70;;;9.30;50.20;;;;;;5035121;28;20535;-55
2023/12/10 07:51:05;;;;;;;4.10;0.87;;;9.30;50.10;;;;;;5034905;28;20178;-49
2023/12/10 07:53:30;;;;;;;1.00;0.47;;;9.30;50.00;;;;;;5035063;28;20230;-55
2023/12/10 07:55:56;;;;;;;1.20;0.87;;;9.40;50.10;;;;;;5034820;28;20826;-53
2023/12/10 07:58:22;;;;;;;1.20;1.07;;;9.40;50.90;;;;;;5034625;28;20174;-48
2023/12/10 08:00:49;;;;;;;3.85;1.77;;;9.40;50.30;;;;;;5034853;28;20671;-54
2023/12/10 08:03:15;;;;;;;1.25;0.73;;;9.40;50.50;;;;;;5034984;28;20284;-49
2023/12/10 08:05:41;;;;;;;1.25;0.88;;;9.40;50.40;;;;;;5034992;28;20249;-50
2023/12/10 08:08:07;;;;;;;0.90;0.80;;;9.50;50.40;;;;;;5034923;28;20256;-53
2023/12/10 08:10:33;;;;;;;0.90;0.40;;;9.50;50.30;;;;;;5034642;28;20487;-47
2023/12/10 08:12:58;;;;;;;0.90;0.63;;;9.60;50.30;;;;;;5016614;28;20209;-51
2023/12/10 08:15:25;;;;;;;1.20;0.97;;;9.70;50.50;;;;;;5034833;28;20650;-52
2023/12/10 08:17:51;;;;;;;1.48;0.90;;;9.70;50.80;;;;;;5034349;28;20419;-49
2023/12/10 08:20:17;;;;;;;0.90;0.50;;;9.70;51.00;;;;;;5034711;28;20182;-46
2023/12/10 08:22:43;;;;;;;2.17;1.97;;;9.90;50.90;;;;;;5034198;28;20209;-52
2023/12/10 08:25:09;;;;;;;1.00;0.60;;;10.10;50.70;;;;;;5034629;28;20412;-49
2023/12/10 08:27:35;;;;;;;1.10;0.88;;;10.20;50.40;;;;;;5034278;28;20173;-49
2023/12/10 08:30:01;;;;;;;0.87;0.43;;;10.30;50.30;;;;;;5034396;28;20170;-55
2023/12/10 08:32:27;;;;;;;1.20;0.77;;;10.40;50.20;;;;;;5034085;28;20432;-54
2023/12/10 08:34:53;;;;;;;1.38;1.27;;;10.40;49.90;;;;;;5034285;28;20181;-49
2023/12/10 08:37:19;;;;;;;1.23;1.13;;;10.50;50.00;;;;;;5034021;28;20174;-47
2023/12/10 08:39:48;;;;;;;1.03;0.67;;;10.60;49.60;;;;;;5034021;28;21157;-52
2023/12/10 08:42:14;;;;;;;2.25;2.05;;;10.60;48.60;;;;;;5034142;28;20211;-48
2023/12/10 08:44:40;;;;;;;1.80;1.70;;;10.60;49.40;;;;;;5034042;28;20547;-47
2023/12/10 08:47:05;;;;;;;2.63;1.70;;;10.70;49.10;;;;;;5033786;28;20176;-51
2023/12/10 08:49:31;;;;;;;1.73;0.90;;;10.80;49.10;;;;;;5033804;28;20166;-52
2023/12/10 08:51:57;;;;;;;1.10;1.00;;;10.90;48.50;;;;;;5033665;28;20400;-49
2023/12/10 08:54:24;;;;;;;1.00;0.60;;;11.00;48.00;;;;;;5033715;28;20197;-47
2023/12/10 08:56:50;;;;;;;5.03;1.52;;;11.00;48.10;;;;;;5033643;28;20178;-50
2023/12/10 08:59:15;;;;;;;1.73;1.00;;;10.90;48.30;;;;;;5033664;28;20173;-55
2023/12/10 09:01:41;;;;;;;1.00;0.73;;;11.00;47.50;;;;;;5033452;28;20175;-48
2023/12/10 09:04:07;;;;;;;0.93;0.60;;;11.10;48.40;;;;;;5033342;28;20429;-55
2023/12/10 09:06:33;;;;;;;1.00;0.70;;;11.20;48.10;;;;;;5033455;28;20166;-54
2023/12/10 09:08:58;;;;;;;1.67;0.63;;;11.30;47.10;;;;;;5032657;28;20255;-48
2023/12/10 09:11:24;;;;;;;1.23;1.13;;;11.40;47.20;;;;;;5033621;28;20416;-48
2023/12/10 09:13:50;;;;;;;5.17;1.37;;;11.50;47.40;;;;;;5015482;28;20209;-54
2023/12/10 09:16:19;;;;;;;1.60;1.40;;;11.50;46.10;;;;;;5033464;28;20181;-51
2023/12/10 09:18:44;;;;;;;7.15;2.53;;;11.60;47.20;;;;;;5033521;28;20182;-46
2023/12/10 09:21:10;;;;;;;1.20;1.00;;;11.60;46.50;;;;;;5033255;28;20178;-53
2023/12/10 09:23:36;;;;;;;1.30;1.10;;;11.70;46.40;;;;;;5033165;28;20468;-51
2023/12/10 09:26:02;;;;;;;1.03;0.90;;;11.70;46.90;;;;;;5033583;28;20807;-50
2023/12/10 09:28:28;;;;;;;1.17;0.95;;;11.80;46.30;;;;;;5033463;28;20173;-55
2023/12/10 09:30:54;;;;;;;1.10;0.83;;;11.80;46.10;;;;;;5055054;22;20335;-47
2023/12/10 09:33:19;;;;;;;1.80;0.60;;;11.90;46.00;;;;;;5052346;28;20713;-46
2023/12/10 09:35:45;;;;;;;0.90;0.47;;;11.90;45.90;;;;;;5052688;28;20177;-54
2023/12/10 09:38:12;;;;;;;2.80;1.17;;;11.90;45.60;;;;;;5052244;28;20219;-52
2023/12/10 09:40:38;;;;;;;4.28;1.08;;;12.00;45.80;;;;;;5052345;28;20424;-46
2023/12/10 09:43:04;;;;;;;14.23;1.00;;;12.10;45.70;;;;;;5052088;28;20749;-49
2023/12/10 09:45:30;;;;;;;0.90;0.60;;;12.00;44.70;;;;;;5052236;28;20524;-51
2023/12/10 09:47:56;;;;;;;1.00;0.70;;;11.90;45.40;;;;;;5052043;28;20173;-46
2023/12/10 09:50:23;;;;;;;1.10;0.70;;;11.80;45.90;;;;;;5052018;28;20608;-51
2023/12/10 09:52:49;;;;;;;1.77;1.63;;;11.90;45.90;;;;;;5052334;28;20404;-48
2023/12/10 09:55:16;;;;;;;1.37;1.20;;;11.90;45.20;;;;;;5052221;28;20185;-45
2023/12/10 09:57:42;;;;;;;2.95;1.42;;;12.00;44.70;;;;;;5051824;28;20299;-50
2023/12/10 10:00:09;;;;;;;3.43;0.97;;;12.10;45.70;;;;;;5051825;28;20228;-50
2023/12/10 10:02:36;;;;;;;1.25;0.70;;;12.10;44.80;;;;;;5051697;28;20534;-48
2023/12/10 10:05:05;;;;;;;10.80;0.98;;;12.20;44.80;;;;;;5052114;28;20181;-52
2023/12/10 10:07:31;;;;;;;1.08;0.90;;;12.30;45.10;;;;;;5051602;28;20763;-52
2023/12/10 10:09:57;;;;;;;0.93;0.60;;;12.20;44.40;;;;;;5051807;28;20251;-44
2023/12/10 10:12:29;;;;;;;0.90;0.70;;;12.10;45.70;;;;;;5051751;28;20477;-49
2023/12/10 10:14:56;;;;;;;0.90;0.40;;;12.00;46.00;;;;;;5051794;28;20180;-53
2023/12/10 10:17:29;;;;;;;2.10;0.98;;;12.10;46.60;;;;;;5051709;28;20677;-47
2023/12/10 10:19:56;;;;;;;6.88;0.70;;;12.10;46.20;;;;;;5051756;28;20248;-48
2023/12/10 10:22:23;;;;;;;1.77;1.30;;;12.20;46.60;;;;;;5051660;28;20263;-52
2023/12/10 10:24:51;;;;;;;4.13;1.00;;;12.30;46.30;;;;;;5051836;28;20177;-45
2023/12/10 10:27:17;;;;;;;2.80;1.58;;;12.20;47.00;;;;;;5051438;28;20635;-48
2023/12/10 10:29:43;;;;;;;1.50;0.90;;;12.20;47.30;;;;;;5051569;28;20227;-51
2023/12/10 10:32:15;;;;;;;1.10;0.70;;;12.10;47.30;;;;;;5051753;28;20185;-49
2023/12/10 10:34:44;;;;;;;1.10;0.82;;;12.20;47.80;;;;;;5051693;28;20192;-47
2023/12/10 10:37:10;;;;;;;1.50;0.88;;;12.30;47.30;;;;;;5051535;28;20181;-49
2023/12/10 10:39:36;;;;;;;1.40;1.27;;;12.30;47.60;;;;;;5051452;28;20701;-51
2023/12/10 10:42:07;;;;;;;1.10;0.65;;;12.30;47.30;;;;;;5051316;28;20196;-46
2023/12/10 10:44:33;;;;;;;0.90;0.50;;;12.30;47.90;;;;;;5051807;28;20232;-47
2023/12/10 10:47:00;;;;;;;1.00;0.80;;;12.30;47.40;;;;;;5051568;28;20173;-51
2023/12/10 10:49:27;;;;;;;7.32;1.58;;;12.20;47.80;;;;;;5051538;28;20279;-46
2023/12/10 10:51:54;;;;;;;1.00;0.80;;;12.20;47.80;;;;;;5051470;28;20181;-52
2023/12/10 10:54:22;;;;;;;0.90;0.40;;;12.20;48.10;;;;;;5051431;28;20512;-54
2023/12/10 10:56:49;;;;;;;1.00;0.50;;;12.10;48.00;;;;;;5051399;28;20178;-48
2023/12/10 10:59:28;;;;;;;1.73;1.45;;;12.00;48.20;;;;;;5051509;28;20733;-48
2023/12/10 11:01:54;;;;;;;2.08;1.10;;;11.90;49.30;;;;;;5051484;28;20205;-47
2023/12/10 11:04:21;;;;;;;4.47;1.17;;;11.90;49.10;;;;;;5051621;28;20177;-51
2023/12/10 11:06:47;;;;;;;1.10;1.00;;;11.80;49.10;;;;;;5051580;28;20177;-48
2023/12/10 11:09:13;;;;;;;1.77;1.40;;;11.80;49.40;;;;;;5051330;28;20658;-50
2023/12/10 11:11:40;;;;;;;1.10;0.88;;;11.90;49.40;;;;;;5051281;28;20400;-53
2023/12/10 11:14:38;;;;;;;3.95;2.35;;;11.90;49.90;;;;;;5051508;28;20180;-47
2023/12/10 11:17:06;;;;;;;1.00;0.65;;;12.00;48.60;;;;;;5017148;28;20184;-49
2023/12/10 11:19:33;;;;;;;2.65;0.77;;;11.70;49.40;;;;;;5051218;28;20232;-53
2023/12/10 11:21:59;;;;;;;1.20;0.85;;;11.70;49.50;;;;;;5051514;28;20546;-47
2023/12/10 11:24:25;;;;;;;1.00;0.82;;;11.70;49.50;;;;;;5051465;28;20630;-46
2023/12/10 11:26:51;;;;;;;1.00;0.70;;;11.70;49.60;;;;;;5051072;28;20665;-52
2023/12/10 11:29:17;;;;;;;1.55;0.50;;;11.80;49.60;;;;;;5051158;28;20193;-48
2023/12/10 11:31:44;;;;;;;1.10;0.87;;;11.80;49.20;;;;;;5051538;28;20219;-48
2023/12/10 11:34:10;;;;;;;2.38;1.17;;;11.80;49.10;;;;;;5054726;28;20712;-53
2023/12/10 11:36:36;;;;;;;1.00;0.60;;;11.90;48.90;;;;;;5054748;28;20181;-53
2023/12/10 11:39:02;;;;;;;1.00;0.55;;;11.90;48.60;;;;;;5054850;28;20213;-46
2023/12/10 11:41:29;;;;;;;0.90;0.53;;;11.90;49.20;;;;;;5054724;28;20206;-54
2023/12/10 11:43:55;;;;;;;5.07;1.20;;;11.90;49.30;;;;;;5054685;28;20452;-48
2023/12/10 11:46:22;;;;;;;1.73;0.93;;;11.90;49.10;;;;;;5054538;28;20180;-49
2023/12/10 11:48:49;;;;;;;1.40;0.95;;;12.00;49.00;;;;;;5054599;28;20400;-52
2023/12/10 11:51:17;;;;;;;2.08;0.68;;;12.00;48.50;;;;;;5054479;28;20585;-51
2023/12/10 11:53:46;;;;;;;3.35;1.27;;;12.00;48.50;;;;;;5054601;28;20650;-47
2023/12/10 11:56:12;;;;;;;0.80;0.40;;;12.10;48.40;;;;;;5054223;28;20181;-49
2023/12/10 11:58:37;;;;;;;1.00;0.70;;;12.10;48.30;;;;;;5054394;28;20184;-51
2023/12/10 12:01:03;;;;;;;1.10;1.00;;;12.10;48.30;;;;;;5054160;28;20459;-48
2023/12/10 12:03:33;;;;;;;1.37;0.80;;;12.10;48.40;;;;;;5054293;28;20248;-49
2023/12/10 12:05:59;;;;;;;1.10;0.70;;;12.10;47.60;;;;;;5054317;28;20487;-54
2023/12/10 12:08:27;;;;;;;2.40;0.70;;;12.10;48.50;;;;;;5054195;28;20178;-46
2023/12/10 12:10:57;;;;;;;2.65;1.65;;;12.10;47.60;;;;;;5054114;28;20272;-50
2023/12/10 12:13:23;;;;;;;2.95;1.40;;;12.20;47.80;;;;;;5054090;28;20245;-53
2023/12/10 12:15:50;;;;;;;1.83;1.73;;;12.20;47.50;;;;;;5054060;28;20178;-46
2023/12/10 12:18:16;;;;;;;1.85;0.73;;;12.30;48.10;;;;;;5054098;28;20219;-49
2023/12/10 12:20:42;;;;;;;0.97;0.60;;;12.20;46.50;;;;;;5053992;28;20221;-49
2023/12/10 12:23:07;;;;;;;1.40;0.67;;;12.00;46.40;;;;;;5053962;28;20455;-47
2023/12/10 12:25:38;;;;;;;1.27;0.40;;;12.00;47.00;;;;;;5053891;28;20416;-51
2023/12/10 12:28:07;;;;;;;1.10;0.90;;;12.00;46.90;;;;;;5053761;28;20231;-53
2023/12/10 12:30:34;;;;;;;1.10;0.90;;;12.20;47.60;;;;;;5053716;28;20221;-46
2023/12/10 12:33:00;;;;;;;1.55;0.95;;;12.30;47.00;;;;;;5053825;28;20638;-47
2023/12/10 12:35:27;;;;;;;1.10;0.90;;;12.30;46.20;;;;;;5053777;28;20658;-53
2023/12/10 12:37:54;;;;;;;1.30;0.98;;;12.30;46.40;;;;;;5053591;28;20185;-47
2023/12/10 12:40:20;;;;;;;1.20;0.80;;;12.30;45.70;;;;;;5053422;28;20738;-49
2023/12/10 12:42:48;;;;;;;2.50;0.90;;;12.30;45.90;;;;;;5053380;28;20201;-51
2023/12/10 12:45:16;;;;;;;1.40;1.30;;;12.40;46.00;;;;;;5053817;28;20177;-48
2023/12/10 12:47:42;;;;;;;2.95;0.88;;;12.60;46.10;;;;;;5053256;28;20176;-45